createdAt,value
2022-12-25T00:01:52.126Z,101424.56
2022-12-25T00:04:19.682Z,101428.03
2022-12-25T00:06:47.186Z,101422.84
2022-12-25T00:09:14.718Z,101422.88
2022-12-25T00:11:42.313Z,101424.66
2022-12-25T00:14:09.835Z,101433.41
2022-12-25T00:16:37.514Z,101427.38
2022-12-25T00:19:05.113Z,101437.72
2022-12-25T00:21:33.283Z,101423.00
2022-12-25T00:24:01.631Z,101420.44
2022-12-25T00:26:29.455Z,101426.50
2022-12-25T00:28:58.595Z,101424.81
2022-12-25T00:31:27.271Z,101416.09
2022-12-25T00:33:54.846Z,101414.34
2022-12-25T00:36:23.850Z,101416.97
2022-12-25T00:38:51.503Z,101406.59
2022-12-25T00:41:43.109Z,101402.16
2022-12-25T00:44:13.734Z,101419.44
2022-12-25T00:46:42.362Z,101420.28
2022-12-25T00:49:11.165Z,101430.66
2022-12-25T00:51:38.749Z,101423.69
2022-12-25T00:54:06.523Z,101424.50
2022-12-25T00:56:34.081Z,101434.91
2022-12-25T00:59:01.613Z,101426.28
2022-12-25T01:01:29.243Z,101428.91
2022-12-25T01:03:57.051Z,101422.88
2022-12-25T01:06:24.566Z,101426.34
2022-12-25T01:09:17.993Z,101436.81
2022-12-25T01:11:45.584Z,101427.38
2022-12-25T01:14:13.715Z,101442.16
2022-12-25T01:16:41.414Z,101429.97
2022-12-25T01:19:09.602Z,101437.75
2022-12-25T01:21:37.173Z,101430.91
2022-12-25T01:24:05.081Z,101426.50
2022-12-25T01:26:32.596Z,101436.97
2022-12-25T01:29:00.102Z,101447.38
2022-12-25T01:31:27.726Z,101449.16
2022-12-25T01:33:55.322Z,101436.22
2022-12-25T01:36:25.551Z,101429.25
2022-12-25T01:38:54.601Z,101422.31
2022-12-25T01:41:24.865Z,101410.22
2022-12-25T01:44:09.608Z,101416.22
2022-12-25T01:46:37.368Z,101412.75
2022-12-25T01:49:09.114Z,101421.38
2022-12-25T01:51:42.025Z,101423.97
2022-12-25T01:54:32.378Z,101424.78
2022-12-25T01:57:03.862Z,101426.56
2022-12-25T01:59:31.420Z,101442.09
2022-12-25T02:02:00.534Z,101433.34
2022-12-25T02:04:39.521Z,101435.09
2022-12-25T02:07:14.732Z,101433.25
2022-12-25T02:09:43.014Z,101445.38
2022-12-25T02:12:15.915Z,101431.53
2022-12-25T02:14:43.543Z,101437.53
2022-12-25T02:17:17.198Z,101440.19
2022-12-25T02:20:09.174Z,101436.75
2022-12-25T02:22:51.612Z,101437.50
2022-12-25T02:25:31.059Z,101431.53
2022-12-25T02:28:01.199Z,101429.75
2022-12-25T02:30:35.387Z,101430.66
2022-12-25T02:33:27.737Z,101431.53
2022-12-25T02:35:58.021Z,101428.88
2022-12-25T02:38:32.984Z,101430.63
2022-12-25T02:41:07.160Z,101433.19
2022-12-25T02:43:57.693Z,101432.38
2022-12-25T02:46:44.510Z,101426.34
2022-12-25T02:49:40.662Z,101418.53
2022-12-25T02:52:35.765Z,101414.16
2022-12-25T02:55:30.521Z,101400.25
2022-12-25T02:58:19.469Z,101415.06
2022-12-25T03:01:08.074Z,101395.28
2022-12-25T03:03:58.416Z,101392.78
2022-12-25T03:06:44.753Z,101374.63
2022-12-25T03:09:35.727Z,101373.81
2022-12-25T03:12:26.327Z,101360.84
2022-12-25T03:15:11.534Z,101364.41
2022-12-25T03:17:39.114Z,101359.25
2022-12-25T03:20:25.570Z,101359.31
2022-12-25T03:23:11.972Z,101368.00
2022-12-25T03:25:57.340Z,101361.94
2022-12-25T03:28:24.882Z,101369.72
2022-12-25T03:31:21.408Z,101362.81
2022-12-25T03:34:48.118Z,101364.59
2022-12-25T03:38:04.464Z,101367.19
2022-12-25T03:40:52.510Z,101371.53
2022-12-25T03:44:06.752Z,101361.09
2022-12-25T03:47:07.083Z,101358.44
2022-12-25T03:50:07.453Z,101373.19
2022-12-25T03:52:54.670Z,101373.19
2022-12-25T03:55:40.686Z,101364.56
2022-12-25T03:58:39.134Z,101366.31
2022-12-25T04:01:24.541Z,101365.44
2022-12-25T04:04:09.557Z,101357.63
2022-12-25T04:06:54.861Z,101362.88
2022-12-25T04:09:39.809Z,101364.59
2022-12-25T04:12:25.410Z,101365.31
2022-12-25T04:15:10.693Z,101372.22
2022-12-25T04:17:56.041Z,101366.13
2022-12-25T04:20:49.265Z,101377.31
2022-12-25T04:23:33.978Z,101389.38
2022-12-25T04:26:19.000Z,101379.84
2022-12-25T04:29:04.066Z,101374.63
2022-12-25T04:31:48.917Z,101373.78
2022-12-25T04:34:39.834Z,101362.47
2022-12-25T04:37:07.368Z,101351.19
2022-12-25T04:39:34.914Z,101366.84
2022-12-25T04:42:02.437Z,101359.00
2022-12-25T04:44:29.928Z,101343.38
2022-12-25T04:46:57.482Z,101357.28
2022-12-25T04:49:25.075Z,101358.94
2022-12-25T04:51:52.764Z,101359.84
2022-12-25T04:54:20.277Z,101362.38
2022-12-25T04:56:47.838Z,101296.28
2022-12-25T04:59:15.448Z,101344.25
2022-12-25T05:01:43.171Z,101339.91
2022-12-25T05:04:10.889Z,101345.16
2022-12-25T05:06:39.022Z,101346.88
2022-12-25T05:09:06.829Z,101343.44
2022-12-25T05:11:34.297Z,101339.97
2022-12-25T05:14:02.928Z,101333.03
2022-12-25T05:16:30.684Z,101320.09
2022-12-25T05:18:58.260Z,101324.44
2022-12-25T05:21:26.266Z,101321.00
2022-12-25T05:23:54.472Z,101326.22
2022-12-25T05:26:25.956Z,101317.53
2022-12-25T05:28:54.481Z,101308.88
2022-12-25T05:31:22.416Z,101315.84
2022-12-25T05:33:51.664Z,101316.72
2022-12-25T05:36:20.107Z,101319.25
2022-12-25T05:38:47.746Z,101328.69
2022-12-25T05:41:15.499Z,101323.53
2022-12-25T05:43:43.052Z,101308.84
2022-12-25T05:46:11.923Z,101315.75
2022-12-25T05:48:39.731Z,101320.06
2022-12-25T05:51:09.397Z,101317.53
2022-12-25T05:53:38.532Z,101316.63
2022-12-25T05:56:08.465Z,101319.97
2022-12-25T05:58:40.753Z,101322.53
2022-12-25T06:01:13.254Z,101312.28
2022-12-25T06:03:40.846Z,101308.88
2022-12-25T06:06:08.588Z,101298.47
2022-12-25T06:08:36.356Z,101291.50
2022-12-25T06:11:05.806Z,101288.06
2022-12-25T06:13:34.410Z,101281.16
2022-12-25T06:16:08.546Z,101285.38
2022-12-25T06:18:37.525Z,101287.97
2022-12-25T06:21:13.449Z,101298.31
2022-12-25T06:23:41.816Z,101294.88
2022-12-25T06:26:12.096Z,101291.47
2022-12-25T06:28:39.923Z,101274.25
2022-12-25T06:31:09.730Z,101289.00
2022-12-25T06:33:37.606Z,101292.44
2022-12-25T06:36:27.043Z,101284.75
2022-12-25T06:38:54.978Z,101280.50
2022-12-25T06:41:25.165Z,101278.84
2022-12-25T06:43:54.588Z,101278.00
2022-12-25T06:46:24.319Z,101277.22
2022-12-25T06:48:52.459Z,101268.56
2022-12-25T06:51:22.573Z,101270.34
2022-12-25T06:53:51.511Z,101260.03
2022-12-25T06:56:22.224Z,101257.50
2022-12-25T06:58:52.383Z,101255.00
2022-12-25T07:01:24.010Z,101248.91
2022-12-25T07:03:55.794Z,101248.94
2022-12-25T07:06:23.687Z,101252.41
2022-12-25T07:08:51.221Z,101252.44
2022-12-25T07:11:19.101Z,101254.19
2022-12-25T07:13:46.666Z,101249.00
2022-12-25T07:16:15.557Z,101249.00
2022-12-25T07:18:43.189Z,101261.03
2022-12-25T07:21:13.889Z,101262.72
2022-12-25T07:23:42.232Z,101268.75
2022-12-25T07:26:11.518Z,101273.03
2022-12-25T07:28:39.143Z,101271.28
2022-12-25T07:31:13.938Z,101274.69
2022-12-25T07:33:42.251Z,101268.53
2022-12-25T07:36:13.072Z,101274.56
2022-12-25T07:38:43.899Z,101265.91
2022-12-25T07:41:13.045Z,101271.09
2022-12-25T07:43:41.137Z,101267.59
2022-12-25T07:46:09.412Z,101277.09
2022-12-25T07:48:37.556Z,101277.97
2022-12-25T07:51:07.683Z,101275.38
2022-12-25T07:53:36.757Z,101276.25
2022-12-25T07:56:08.955Z,101277.09
2022-12-25T07:58:36.501Z,101296.16
2022-12-25T08:01:27.097Z,101278.91
2022-12-25T08:04:00.460Z,101290.22
2022-12-25T08:06:32.539Z,101283.34
2022-12-25T08:09:12.695Z,101290.34
2022-12-25T08:11:40.723Z,101286.06
2022-12-25T08:14:09.893Z,101295.59
2022-12-25T08:16:39.805Z,101306.03
2022-12-25T08:19:07.530Z,101310.44
2022-12-25T08:21:35.089Z,101295.59
2022-12-25T08:24:03.268Z,101315.53
2022-12-25T08:26:31.278Z,101303.47
2022-12-25T08:28:58.884Z,101304.38
2022-12-25T08:31:28.858Z,101287.94
2022-12-25T08:33:59.096Z,101297.50
2022-12-25T08:36:27.160Z,101281.91
2022-12-25T08:39:02.115Z,101292.31
2022-12-25T08:41:30.438Z,101272.34
2022-12-25T08:43:57.962Z,101255.16
2022-12-25T08:46:25.706Z,101257.75
2022-12-25T08:48:53.418Z,101266.38
2022-12-25T08:51:22.805Z,101264.59
2022-12-25T08:53:52.228Z,101266.34
2022-12-25T08:56:21.281Z,101276.72
2022-12-25T08:58:48.865Z,101271.56
2022-12-25T09:01:16.452Z,101280.25
2022-12-25T09:03:44.417Z,101270.81
2022-12-25T09:06:14.615Z,101270.72
2022-12-25T09:08:48.719Z,101280.31
2022-12-25T09:11:18.121Z,101275.06
2022-12-25T09:13:45.691Z,101290.72
2022-12-25T09:16:16.352Z,101299.38
2022-12-25T09:18:43.994Z,101288.03
2022-12-25T09:21:14.800Z,101294.19
2022-12-25T09:23:43.032Z,101288.09
2022-12-25T09:26:14.121Z,101290.69
2022-12-25T09:28:48.557Z,101298.41
2022-12-25T09:31:18.718Z,101303.56
2022-12-25T09:33:46.288Z,101313.91
2022-12-25T09:36:13.787Z,101299.22
2022-12-25T09:38:41.376Z,101313.06
2022-12-25T09:41:17.295Z,101286.25
2022-12-25T09:43:52.356Z,101294.25
2022-12-25T09:46:24.485Z,101287.28
2022-12-25T09:49:02.876Z,101297.66
2022-12-25T09:51:32.214Z,101293.38
2022-12-25T09:54:10.387Z,101288.16
2022-12-25T09:56:39.956Z,101267.41
2022-12-25T09:59:18.285Z,101276.16
2022-12-25T10:02:23.801Z,101265.69
2022-12-25T10:05:08.033Z,101275.19
2022-12-25T10:07:50.813Z,101283.88
2022-12-25T10:10:50.864Z,101262.28
2022-12-25T10:13:36.295Z,101254.53
2022-12-25T10:16:28.427Z,101265.84
2022-12-25T10:19:41.486Z,101256.31
2022-12-25T10:22:11.752Z,101261.34
2022-12-25T10:24:50.597Z,101264.78
2022-12-25T10:27:32.437Z,101245.84
2022-12-25T10:30:00.463Z,101253.63
2022-12-25T10:32:28.043Z,101245.00
2022-12-25T10:34:55.721Z,101240.72
2022-12-25T10:37:23.291Z,101249.31
2022-12-25T10:39:50.816Z,101227.69
2022-12-25T10:42:56.446Z,101225.09
2022-12-25T10:45:23.925Z,101243.22
2022-12-25T10:47:59.621Z,101223.28
2022-12-25T10:50:29.812Z,101212.94
2022-12-25T10:53:04.367Z,101200.00
2022-12-25T10:55:35.911Z,101203.47
2022-12-25T10:58:03.461Z,101188.72
2022-12-25T11:00:33.327Z,101186.97
2022-12-25T11:03:01.704Z,101195.69
2022-12-25T11:05:31.954Z,101187.91
2022-12-25T11:08:01.492Z,101178.44
2022-12-25T11:10:42.206Z,101174.94
2022-12-25T11:13:21.850Z,101187.06
2022-12-25T11:15:50.671Z,101169.78
2022-12-25T11:18:22.561Z,101160.22
2022-12-25T11:20:54.008Z,101175.84
2022-12-25T11:23:24.205Z,101168.06
2022-12-25T11:26:02.245Z,101152.50
2022-12-25T11:28:32.131Z,101150.84
2022-12-25T11:31:08.798Z,101130.06
2022-12-25T11:33:41.540Z,101128.31
2022-12-25T11:36:19.006Z,101122.28
2022-12-25T11:38:46.581Z,101112.75
2022-12-25T11:41:20.375Z,101112.78
2022-12-25T11:43:58.000Z,101117.13
2022-12-25T11:46:40.358Z,101124.94
2022-12-25T11:49:14.918Z,101111.91
2022-12-25T11:51:47.095Z,101116.25
2022-12-25T11:54:26.357Z,101114.53
2022-12-25T11:56:54.472Z,101127.50
2022-12-25T11:59:31.321Z,101117.06
2022-12-25T12:02:25.443Z,101115.34
2022-12-25T12:05:04.963Z,101129.13
2022-12-25T12:07:35.917Z,101113.56
2022-12-25T12:10:22.131Z,101106.63
2022-12-25T12:13:02.310Z,101093.63
2022-12-25T12:15:31.745Z,101101.44
2022-12-25T12:18:23.618Z,101096.25
2022-12-25T12:21:21.675Z,101087.59
2022-12-25T12:24:20.641Z,101079.81
2022-12-25T12:27:00.110Z,101078.09
2022-12-25T12:29:38.555Z,101077.19
2022-12-25T12:32:07.552Z,101068.47
2022-12-25T12:34:50.127Z,101073.72
2022-12-25T12:37:24.675Z,101067.66
2022-12-25T12:39:55.160Z,101078.88
2022-12-25T12:42:50.545Z,101083.19
2022-12-25T12:45:25.094Z,101079.75
2022-12-25T12:47:53.689Z,101071.09
2022-12-25T12:50:32.290Z,101071.13
2022-12-25T12:53:01.358Z,101088.38
2022-12-25T12:55:35.320Z,101076.31
2022-12-25T12:58:05.883Z,101069.41
2022-12-25T13:00:47.937Z,101065.97
2022-12-25T13:03:39.052Z,101055.56
2022-12-25T13:06:18.389Z,101046.94
2022-12-25T13:09:16.813Z,101035.72
2022-12-25T13:11:45.274Z,101029.63
2022-12-25T13:14:24.691Z,101023.59
2022-12-25T13:16:55.470Z,101020.16
2022-12-25T13:19:25.887Z,101021.00
2022-12-25T13:22:00.272Z,101019.31
2022-12-25T13:24:31.347Z,101022.72
2022-12-25T13:27:00.061Z,101019.25
2022-12-25T13:29:31.361Z,101020.97
2022-12-25T13:32:00.729Z,101014.91
2022-12-25T13:34:31.208Z,101003.69
2022-12-25T13:37:09.477Z,100998.47
2022-12-25T13:39:38.673Z,101001.94
2022-12-25T13:42:09.945Z,101001.03
2022-12-25T13:44:40.557Z,101007.97
2022-12-25T13:47:23.418Z,101000.19
2022-12-25T13:49:52.916Z,100998.44
2022-12-25T13:52:25.582Z,101004.47
2022-12-25T13:54:58.557Z,101008.72
2022-12-25T13:57:34.266Z,101015.63
2022-12-25T14:00:02.661Z,101012.16
2022-12-25T14:02:40.536Z,101013.94
2022-12-25T14:05:25.519Z,101017.41
2022-12-25T14:07:54.865Z,101006.16
2022-12-25T14:10:28.356Z,101003.63
2022-12-25T14:12:59.395Z,101012.22
2022-12-25T14:15:30.635Z,101018.25
2022-12-25T14:17:59.082Z,101020.03
2022-12-25T14:20:38.033Z,101021.78
2022-12-25T14:23:06.486Z,101018.31
2022-12-25T14:25:43.859Z,101010.53
2022-12-25T14:28:21.475Z,101008.81
2022-12-25T14:30:49.410Z,101010.53
2022-12-25T14:33:20.799Z,101013.16
2022-12-25T14:35:49.059Z,100993.25
2022-12-25T14:38:30.020Z,100986.31
2022-12-25T14:41:26.194Z,100992.38
2022-12-25T14:43:57.091Z,100991.53
2022-12-25T14:46:26.493Z,100982.03
2022-12-25T14:49:05.473Z,100991.47
2022-12-25T14:51:35.053Z,100982.78
2022-12-25T14:54:14.942Z,100984.56
2022-12-25T14:56:48.777Z,100980.22
2022-12-25T14:59:25.437Z,100988.88
2022-12-25T15:01:57.088Z,100977.69
2022-12-25T15:04:25.937Z,100982.81
2022-12-25T15:07:07.265Z,100988.00
2022-12-25T15:09:36.146Z,100989.72
2022-12-25T15:12:03.837Z,100990.56
2022-12-25T15:14:31.719Z,100986.28
2022-12-25T15:17:01.981Z,101003.56
2022-12-25T15:19:37.831Z,100998.34
2022-12-25T15:22:06.809Z,101005.25
2022-12-25T15:24:34.513Z,101007.84
2022-12-25T15:27:02.049Z,101005.25
2022-12-25T15:30:07.821Z,100994.03
2022-12-25T15:32:23.264Z,100990.56
2022-12-25T15:34:51.315Z,100990.56
2022-12-25T15:37:19.791Z,100986.22
2022-12-25T15:39:47.833Z,100978.47
2022-12-25T15:42:19.528Z,100980.22
2022-12-25T15:44:47.223Z,100977.69
2022-12-25T15:47:16.401Z,100973.31
2022-12-25T15:49:44.469Z,100975.88
2022-12-25T15:52:15.392Z,100967.25
2022-12-25T15:54:42.884Z,100969.84
2022-12-25T15:57:23.311Z,100973.28
2022-12-25T15:59:50.824Z,100974.16
2022-12-25T16:02:21.278Z,100960.28
2022-12-25T16:04:51.037Z,100982.81
2022-12-25T16:07:21.606Z,100981.97
2022-12-25T16:09:49.181Z,100982.78
2022-12-25T16:12:16.765Z,100990.56
2022-12-25T16:14:44.398Z,100981.09
2022-12-25T16:17:16.111Z,100977.59
2022-12-25T16:19:44.909Z,100974.19
2022-12-25T16:22:19.537Z,100974.16
2022-12-25T16:24:47.082Z,100972.44
2022-12-25T16:27:14.604Z,100960.34
2022-12-25T16:29:43.057Z,100953.41
2022-12-25T16:32:15.513Z,100947.38
2022-12-25T16:34:42.989Z,100950.88
2022-12-25T16:37:10.592Z,100948.25
2022-12-25T16:39:38.183Z,100957.75
2022-12-25T16:42:05.881Z,100938.66
2022-12-25T16:44:37.446Z,100949.06
2022-12-25T16:47:05.085Z,100951.66
2022-12-25T16:49:32.703Z,100953.44
2022-12-25T16:52:00.274Z,100946.47
2022-12-25T16:54:27.828Z,100945.63
2022-12-25T16:56:55.448Z,100936.13
2022-12-25T16:59:22.981Z,100935.22
2022-12-25T17:01:50.712Z,100936.91
2022-12-25T17:04:27.497Z,100924.78
2022-12-25T17:06:55.106Z,100939.56
2022-12-25T17:09:22.762Z,100938.69
2022-12-25T17:11:50.328Z,100948.19
2022-12-25T17:14:17.958Z,100957.72
2022-12-25T17:16:45.777Z,100958.59
2022-12-25T17:19:20.200Z,100965.50
2022-12-25T17:21:48.310Z,100960.31
2022-12-25T17:24:16.254Z,100956.88
2022-12-25T17:26:44.655Z,100955.13
2022-12-25T17:29:17.165Z,100952.53
2022-12-25T17:31:49.562Z,100948.19
2022-12-25T17:34:17.214Z,100944.75
2022-12-25T17:36:44.970Z,100949.94
2022-12-25T17:39:12.782Z,100946.47
2022-12-25T17:41:40.314Z,100936.09
2022-12-25T17:44:07.930Z,100947.34
2022-12-25T17:46:35.541Z,100945.59
2022-12-25T17:49:03.277Z,100943.00
2022-12-25T17:51:32.628Z,100949.91
2022-12-25T17:54:03.091Z,100956.81
2022-12-25T17:56:31.449Z,100950.78
2022-12-25T17:59:03.482Z,100942.13
2022-12-25T18:01:31.166Z,100947.31
2022-12-25T18:04:00.519Z,100927.41
2022-12-25T18:06:29.618Z,100930.00
2022-12-25T18:08:58.854Z,100933.47
2022-12-25T18:11:32.836Z,100933.47
2022-12-25T18:14:03.849Z,100930.00
2022-12-25T18:16:33.946Z,100923.94
2022-12-25T18:19:02.136Z,100918.75
2022-12-25T18:21:30.635Z,100922.22
2022-12-25T18:23:58.300Z,100926.53
2022-12-25T18:26:28.683Z,100936.06
2022-12-25T18:28:57.448Z,100923.09
2022-12-25T18:31:27.647Z,100931.75
2022-12-25T18:33:55.421Z,100933.47
2022-12-25T18:36:25.789Z,100937.75
2022-12-25T18:38:54.890Z,100951.63
2022-12-25T18:41:23.466Z,100961.13
2022-12-25T18:43:55.262Z,100956.78
2022-12-25T18:46:28.103Z,100962.00
2022-12-25T18:48:57.272Z,100948.16
2022-12-25T18:51:28.677Z,100955.94
2022-12-25T18:54:01.600Z,100946.44
2022-12-25T18:56:29.123Z,100954.22
2022-12-25T18:58:56.614Z,100945.56
2022-12-25T19:01:26.169Z,100951.63
2022-12-25T19:04:01.955Z,100952.50
2022-12-25T19:06:33.179Z,100956.81
2022-12-25T19:09:00.787Z,100943.00
2022-12-25T19:11:28.279Z,100932.63
2022-12-25T19:13:55.742Z,100932.63
2022-12-25T19:16:23.304Z,100939.56
2022-12-25T19:18:50.916Z,100937.81
2022-12-25T19:21:18.438Z,100937.81
2022-12-25T19:23:46.247Z,100934.38
2022-12-25T19:26:13.994Z,100932.63
2022-12-25T19:28:41.870Z,100936.09
2022-12-25T19:31:11.764Z,100937.81
2022-12-25T19:33:41.611Z,100938.69
2022-12-25T19:36:12.649Z,100946.47
2022-12-25T19:38:40.157Z,100945.63
2022-12-25T19:41:15.773Z,100953.41
2022-12-25T19:43:45.631Z,100949.06
2022-12-25T19:46:37.357Z,100955.13
2022-12-25T19:49:05.698Z,100951.69
2022-12-25T19:51:36.643Z,100956.88
2022-12-25T19:54:05.702Z,100952.53
2022-12-25T19:56:34.144Z,100955.16
2022-12-25T19:59:01.778Z,100961.22
2022-12-25T20:01:30.667Z,100963.78
2022-12-25T20:03:58.947Z,100951.69
2022-12-25T20:06:32.648Z,100951.69
2022-12-25T20:09:07.727Z,100946.50
2022-12-25T20:11:36.932Z,100957.75
2022-12-25T20:14:05.321Z,100948.22
2022-12-25T20:16:33.232Z,100952.53
2022-12-25T20:19:00.813Z,100967.25
2022-12-25T20:21:29.810Z,100956.94
2022-12-25T20:23:58.048Z,100953.47
2022-12-25T20:26:29.427Z,100961.19
2022-12-25T20:28:58.087Z,100963.84
2022-12-25T20:31:31.998Z,100957.78
2022-12-25T20:34:02.463Z,100949.97
2022-12-25T20:36:36.343Z,100950.88
2022-12-25T20:39:05.325Z,100950.00
2022-12-25T20:41:32.875Z,100950.88
2022-12-25T20:44:01.946Z,100957.78
2022-12-25T20:46:29.653Z,100943.09
2022-12-25T20:48:57.185Z,100950.00
2022-12-25T20:51:27.267Z,100963.84
2022-12-25T20:53:55.373Z,100956.03
2022-12-25T20:56:25.630Z,100963.84
2022-12-25T20:58:57.375Z,100970.78
2022-12-25T21:01:25.901Z,100962.13
2022-12-25T21:03:54.621Z,100973.34
2022-12-25T21:06:23.089Z,100969.03
2022-12-25T21:08:50.889Z,100970.78
2022-12-25T21:11:18.570Z,100971.63
2022-12-25T21:13:46.911Z,100974.22
2022-12-25T21:16:21.454Z,100970.75
2022-12-25T21:18:50.566Z,100975.09
2022-12-25T21:21:18.263Z,100978.56
2022-12-25T21:23:45.889Z,100975.97
2022-12-25T21:26:25.184Z,100986.38
2022-12-25T21:28:55.832Z,100980.28
2022-12-25T21:31:24.485Z,100991.53
2022-12-25T21:33:54.746Z,100995.88
2022-12-25T21:36:29.535Z,101004.53
2022-12-25T21:39:03.049Z,101007.13
2022-12-25T21:41:32.462Z,101007.13
2022-12-25T21:44:00.685Z,101014.03
2022-12-25T21:46:28.750Z,101011.47
2022-12-25T21:48:56.769Z,101009.72
2022-12-25T21:51:44.733Z,101014.91
2022-12-25T21:54:13.291Z,101008.84
2022-12-25T21:56:44.829Z,101014.94
2022-12-25T21:59:16.390Z,101014.06
2022-12-25T22:01:44.745Z,101012.31
2022-12-25T22:04:14.286Z,101005.41
2022-12-25T22:06:59.563Z,101020.97
2022-12-25T22:09:27.094Z,101006.28
2022-12-25T22:12:12.120Z,101005.44
2022-12-25T22:14:59.175Z,101013.19
2022-12-25T22:17:49.943Z,101002.81
2022-12-25T22:20:19.223Z,100998.50
2022-12-25T22:22:48.224Z,101008.00
2022-12-25T22:25:16.897Z,101008.84
2022-12-25T22:27:46.064Z,101014.06
2022-12-25T22:30:20.645Z,101014.91
2022-12-25T22:32:48.319Z,100994.13
2022-12-25T22:35:16.957Z,100978.56
2022-12-25T22:37:44.833Z,100996.75
2022-12-25T22:40:15.825Z,100990.69
2022-12-25T22:42:43.576Z,100979.44
2022-12-25T22:45:11.937Z,100991.56
2022-12-25T22:47:39.621Z,100989.81
2022-12-25T22:50:07.663Z,101000.19
2022-12-25T22:52:35.236Z,100980.28
2022-12-25T22:55:03.009Z,100994.13
2022-12-25T22:57:30.578Z,100997.59
2022-12-25T22:59:58.256Z,101008.81
2022-12-25T23:02:26.124Z,101004.44
2022-12-25T23:04:53.882Z,100991.47
2022-12-25T23:07:21.357Z,101002.69
2022-12-25T23:09:48.937Z,101003.63
2022-12-25T23:12:30.453Z,100994.94
2022-12-25T23:14:58.491Z,100983.75
2022-12-25T23:17:43.713Z,100978.53
2022-12-25T23:20:31.613Z,100975.09
2022-12-25T23:23:16.660Z,100975.94
2022-12-25T23:26:01.943Z,100970.75
2022-12-25T23:28:46.896Z,100982.03
2022-12-25T23:31:14.503Z,100982.88
2022-12-25T23:33:42.646Z,100955.16
2022-12-25T23:36:10.419Z,100979.41
2022-12-25T23:38:37.975Z,100993.25
2022-12-25T23:41:05.556Z,100988.91
2022-12-25T23:43:33.138Z,101001.03
2022-12-25T23:46:00.737Z,101014.88
2022-12-25T23:48:29.849Z,101009.69
2022-12-25T23:50:57.618Z,101008.84
2022-12-25T23:53:25.157Z,101006.22
2022-12-25T23:55:55.871Z,101010.56
2022-12-25T23:58:23.634Z,101012.31
